Time;durP1;ratioP1;P1;durP2;ratioP2;P2;SDS_P1;SDS_P2;PMS_P1;PMS_P2;Temp;Humidity;BMP_temperature;BMP_pressure;BME280_temperature;BME280_humidity;BME280_pressure;Samples;Min_cycle;Max_cycle;Signal;HPM_P1;HPM_P2
2024/02/22 00:01:47;;;;;;;10.77;3.95;;;;;;;5.85;100.00;99399.56;5051356;28;20425;-80
2024/02/22 00:04:21;;;;;;;10.52;3.80;;;;;;;5.83;100.00;99399.84;5039991;28;20434;-80
2024/02/22 00:06:49;;;;;;;10.65;4.05;;;;;;;5.83;100.00;99385.50;5034005;28;20427;-81
2024/02/22 00:09:17;;;;;;;9.75;3.85;;;;;;;5.85;100.00;99386.84;5058426;28;20423;-80
2024/02/22 00:11:52;;;;;;;10.52;4.10;;;;;;;5.83;100.00;99378.22;5057488;28;20423;-80
2024/02/22 00:14:27;;;;;;;11.23;3.90;;;;;;;5.84;100.00;99376.34;5038728;28;20428;-79
2024/02/22 00:16:55;;;;;;;9.07;3.75;;;;;;;5.76;100.00;99373.16;5056141;28;20426;-80
2024/02/22 00:19:28;;;;;;;11.57;3.80;;;;;;;5.82;100.00;99365.03;5059024;28;20421;-81
2024/02/22 00:22:01;;;;;;;11.60;4.15;;;;;;;5.78;100.00;99364.75;5045248;28;20432;-80
2024/02/22 00:24:36;;;;;;;12.80;3.72;;;;;;;5.85;100.00;99353.66;5063443;28;20419;-79
2024/02/22 00:27:10;;;;;;;12.38;3.90;;;;;;;5.84;100.00;99333.13;5043669;28;20918;-80
2024/02/22 00:29:44;;;;;;;10.87;3.87;;;;;;;5.81;100.00;99331.81;5057845;28;20518;-81
2024/02/22 00:32:18;;;;;;;12.43;3.90;;;;;;;5.82;100.00;99329.94;5045102;28;20430;-80
2024/02/22 00:34:51;;;;;;;10.57;3.75;;;;;;;5.91;100.00;99322.81;5060153;28;20458;-80
2024/02/22 00:37:24;;;;;;;10.90;3.38;;;;;;;5.90;100.00;99321.22;5061444;28;20420;-80
2024/02/22 00:39:57;;;;;;;9.55;3.58;;;;;;;5.89;100.00;99314.19;5039401;28;20456;-81
2024/02/22 00:42:32;;;;;;;9.47;4.00;;;;;;;5.93;100.00;99313.34;5045532;28;20425;-80
2024/02/22 00:45:06;;;;;;;8.63;3.30;;;;;;;5.88;100.00;99299.91;5058189;28;20427;-81
2024/02/22 00:47:39;;;;;;;10.50;4.30;;;;;;;5.85;100.00;99308.56;5048391;28;20431;-80
2024/02/22 00:50:13;;;;;;;10.10;3.72;;;;;;;5.88;100.00;99293.69;5060014;28;20421;-80
2024/02/22 00:52:41;;;;;;;14.38;4.05;;;;;;;5.86;100.00;99287.78;5058338;28;20425;-79
2024/02/22 00:55:14;;;;;;;10.25;3.70;;;;;;;5.86;100.00;99283.16;5058595;28;20419;-80
2024/02/22 00:57:49;;;;;;;9.35;3.60;;;;;;;5.88;100.00;99270.22;5058288;28;20455;-81
2024/02/22 01:00:22;;;;;;;9.52;3.70;;;;;;;5.88;100.00;99269.38;5055865;28;20446;-80
2024/02/22 01:02:55;;;;;;;13.20;3.80;;;;;;;5.84;100.00;99261.06;5042543;28;20431;-80
2024/02/22 01:05:28;;;;;;;10.70;3.50;;;;;;;5.89;100.00;99261.00;5062909;28;20421;-80
2024/02/22 01:08:03;;;;;;;15.23;4.20;;;;;;;5.86;100.00;99253.47;5054799;28;21017;-80
2024/02/22 01:10:37;;;;;;;11.10;3.78;;;;;;;5.95;100.00;99240.97;5039853;28;20431;-80
2024/02/22 01:13:08;;;;;;;11.13;3.45;;;;;;;5.85;100.00;99248.34;5061065;28;20432;-80
2024/02/22 01:15:42;;;;;;;9.52;3.70;;;;;;;5.83;100.00;99237.84;5058883;28;20426;-81
2024/02/22 01:18:15;;;;;;;9.77;3.67;;;;;;;5.92;100.00;99232.63;5060455;28;20417;-80
2024/02/22 01:20:42;;;;;;;10.23;3.90;;;;;;;5.87;100.00;99228.09;5058280;28;20402;-81
2024/02/22 01:23:15;;;;;;;12.27;4.00;;;;;;;5.97;100.00;99227.19;5048545;28;20417;-81
2024/02/22 01:25:49;;;;;;;10.98;3.70;;;;;;;5.87;100.00;99217.28;5040739;28;20428;-80
2024/02/22 01:28:24;;;;;;;13.23;4.13;;;;;;;5.87;100.00;99198.38;5059637;28;20417;-80
2024/02/22 01:30:52;;;;;;;10.70;3.50;;;;;;;5.87;100.00;99205.66;5043984;28;20420;-80
2024/02/22 01:33:25;;;;;;;8.43;3.70;;;;;;;5.80;100.00;99203.31;5047527;28;20444;-81
2024/02/22 01:35:58;;;;;;;9.65;3.97;;;;;;;5.78;100.00;99190.09;5061132;28;20790;-80
2024/02/22 01:38:31;;;;;;;8.98;3.90;;;;;;;5.78;100.00;99187.38;5059564;28;20421;-80
2024/02/22 01:41:06;;;;;;;9.93;4.03;;;;;;;5.79;100.00;99180.91;5039931;28;20420;-81
2024/02/22 01:43:40;;;;;;;10.35;4.00;;;;;;;5.77;100.00;99172.31;5041408;28;20421;-81
2024/02/22 01:46:10;;;;;;;12.52;4.07;;;;;;;5.71;100.00;99164.53;5048088;28;20502;-81
2024/02/22 01:48:43;;;;;;;9.65;4.18;;;;;;;5.79;100.00;99172.00;5038672;28;20428;-80
2024/02/22 01:51:11;;;;;;;9.50;3.88;;;;;;;5.83;100.00;99153.34;5037833;28;20425;-80
2024/02/22 01:53:39;;;;;;;11.10;4.17;;;;;;;5.80;100.00;99149.34;5055226;28;20798;-81
2024/02/22 01:56:13;;;;;;;12.10;4.20;;;;;;;5.88;100.00;99151.41;5060755;28;20440;-80
2024/02/22 01:58:49;;;;;;;9.32;3.63;;;;;;;5.82;100.00;99147.13;5045081;28;20420;-81
2024/02/22 02:01:23;;;;;;;7.63;3.88;;;;;;;5.83;100.00;99145.22;5036259;28;20857;-81
2024/02/22 02:03:51;;;;;;;14.65;4.50;;;;;;;5.81;100.00;99144.72;5043447;28;20754;-80
2024/02/22 02:06:25;;;;;;;11.32;3.88;;;;;;;5.83;100.00;99142.53;5047957;28;20431;-80
2024/02/22 02:08:58;;;;;;;11.30;3.88;;;;;;;5.80;100.00;99135.84;5055229;28;20439;-81
2024/02/22 02:11:26;;;;;;;8.13;3.63;;;;;;;5.80;100.00;99130.44;5043502;28;20421;-81
2024/02/22 02:14:00;;;;;;;11.70;4.38;;;;;;;5.75;100.00;99128.56;5058978;28;20936;-80
2024/02/22 02:16:34;;;;;;;9.52;4.10;;;;;;;5.78;100.00;99117.19;5056395;28;20421;-81
2024/02/22 02:19:11;;;;;;;12.77;3.97;;;;;;;5.75;100.00;99116.97;5041595;28;20454;-81
2024/02/22 02:21:45;;;;;;;10.55;3.90;;;;;;;5.73;100.00;99106.47;5062087;28;20421;-80
2024/02/22 02:24:30;;;;;;;12.30;4.05;;;;;;;5.83;100.00;99107.44;5047871;28;20440;-80
2024/02/22 02:27:06;;;;;;;9.13;3.90;;;;;;;5.85;100.00;99094.47;5057691;28;20484;-80
2024/02/22 02:29:34;;;;;;;11.20;3.97;;;;;;;5.73;100.00;99090.28;5058842;28;20430;-79
2024/02/22 02:32:07;;;;;;;11.93;4.30;;;;;;;5.72;100.00;99091.38;5060087;28;20904;-81
2024/02/22 02:34:41;;;;;;;11.75;4.20;;;;;;;5.71;100.00;99092.44;5057299;28;20425;-81
2024/02/22 02:37:14;;;;;;;9.82;4.28;;;;;;;5.74;100.00;99082.97;5044770;28;20421;-80
2024/02/22 02:39:46;;;;;;;11.70;4.20;;;;;;;5.74;100.00;99083.78;5059021;28;20904;-81
2024/02/22 02:42:20;;;;;;;11.65;4.30;;;;;;;5.73;100.00;99076.78;5055840;28;20909;-79
2024/02/22 02:44:48;;;;;;;14.15;4.07;;;;;;;5.75;100.00;99071.09;5041728;28;20425;-80
2024/02/22 02:47:22;;;;;;;11.98;4.20;;;;;;;5.75;100.00;99063.78;5043809;28;20425;-80
2024/02/22 02:49:55;;;;;;;10.23;4.22;;;;;;;5.77;100.00;99060.81;5057333;28;20414;-80
2024/02/22 02:52:28;;;;;;;12.00;4.28;;;;;;;5.82;100.00;99055.34;5039750;28;20417;-81
2024/02/22 02:55:02;;;;;;;10.17;4.13;;;;;;;5.76;100.00;99054.59;5056944;28;20419;-80
2024/02/22 02:57:36;;;;;;;11.57;4.22;;;;;;;5.81;100.00;99042.94;5056704;28;20435;-80
2024/02/22 03:00:12;;;;;;;14.00;4.53;;;;;;;5.83;100.00;99034.53;5059630;28;20417;-81
2024/02/22 03:02:40;;;;;;;10.45;4.10;;;;;;;5.79;100.00;99037.81;5057562;28;20454;-81
2024/02/22 03:05:09;;;;;;;10.45;4.30;;;;;;;5.85;100.00;99026.97;5058446;28;20415;-80
2024/02/22 03:07:38;;;;;;;11.77;4.20;;;;;;;5.81;100.00;99020.56;5042453;28;20429;-81
2024/02/22 03:10:11;;;;;;;12.45;4.28;;;;;;;5.85;100.00;99025.06;5055570;28;20785;-80
2024/02/22 03:12:46;;;;;;;13.50;4.50;;;;;;;5.85;100.00;99014.28;5056206;28;20422;-81
2024/02/22 03:15:20;;;;;;;16.67;7.53;;;;;;;5.81;100.00;99007.84;5058090;28;20426;-80
2024/02/22 03:17:48;;;;;;;12.98;5.75;;;;;;;5.91;100.00;99004.22;5061040;28;20426;-81
2024/02/22 03:20:21;;;;;;;10.23;5.15;;;;;;;5.95;100.00;99005.22;5056571;28;20913;-81
2024/02/22 03:22:50;;;;;;;10.73;5.00;;;;;;;5.92;100.00;99003.13;5060245;28;20413;-80
2024/02/22 03:25:23;;;;;;;11.63;4.85;;;;;;;5.84;100.00;98996.50;5036962;28;20424;-82
2024/02/22 03:27:58;;;;;;;12.63;6.13;;;;;;;6.01;100.00;98995.19;5057840;28;21007;-81
2024/02/22 03:30:27;;;;;;;12.50;5.28;;;;;;;5.93;100.00;98989.31;5040192;28;20884;-81
2024/02/22 03:32:57;;;;;;;12.70;4.72;;;;;;;5.91;100.00;98983.44;5039020;28;20425;-80
2024/02/22 03:35:30;;;;;;;13.98;4.95;;;;;;;5.91;100.00;98978.03;5056588;28;20413;-81
2024/02/22 03:37:58;;;;;;;9.67;4.60;;;;;;;5.94;100.00;98980.13;5059292;28;20427;-81
2024/02/22 03:40:32;;;;;;;10.07;4.63;;;;;;;5.97;100.00;98967.97;5058210;28;20420;-80
2024/02/22 03:43:06;;;;;;;10.63;4.60;;;;;;;5.92;100.00;98973.41;5045697;28;20430;-81
2024/02/22 03:45:34;;;;;;;11.90;4.70;;;;;;;5.98;100.00;98974.19;5058237;28;20408;-80
2024/02/22 03:48:08;;;;;;;12.05;5.00;;;;;;;5.91;100.00;98961.00;5037851;28;20444;-81
2024/02/22 03:50:43;;;;;;;11.00;5.18;;;;;;;5.93;100.00;98954.22;5043019;28;20417;-79
2024/02/22 03:53:11;;;;;;;12.73;4.90;;;;;;;5.88;100.00;98950.81;5043960;28;20456;-82
2024/02/22 03:55:39;;;;;;;12.27;5.13;;;;;;;5.92;100.00;98943.72;5055533;28;20835;-80
2024/02/22 03:58:14;;;;;;;11.13;5.00;;;;;;;5.92;100.00;98944.53;5037747;28;20422;-81
2024/02/22 04:00:48;;;;;;;13.80;4.57;;;;;;;5.94;100.00;98931.53;5042940;28;20751;-81
2024/02/22 04:03:16;;;;;;;9.57;5.07;;;;;;;5.96;100.00;98932.03;5047142;28;20776;-81
2024/02/22 04:05:45;;;;;;;12.75;5.55;;;;;;;5.91;100.00;98924.03;5042684;28;20932;-81
2024/02/22 04:08:18;;;;;;;10.93;5.30;;;;;;;6.03;100.00;98920.91;5059353;28;20437;-81
2024/02/22 04:10:46;;;;;;;12.95;5.60;;;;;;;5.97;100.00;98916.66;5035176;28;20916;-81
2024/02/22 04:13:21;;;;;;;12.80;5.07;;;;;;;6.04;100.00;98919.81;5057404;28;20517;-80
2024/02/22 04:15:54;;;;;;;13.32;5.30;;;;;;;6.00;100.00;98916.09;5056486;28;20417;-81
2024/02/22 04:18:27;;;;;;;11.37;5.47;;;;;;;6.00;100.00;98915.31;5054943;28;20882;-81
2024/02/22 04:20:55;;;;;;;11.65;5.85;;;;;;;6.00;100.00;98908.00;5038272;28;20433;-82
2024/02/22 04:23:29;;;;;;;13.13;5.75;;;;;;;6.02;100.00;98902.31;5040700;28;20423;-81
2024/02/22 04:26:02;;;;;;;12.93;5.68;;;;;;;6.00;100.00;98902.59;5055130;28;20466;-82
2024/02/22 04:28:37;;;;;;;14.30;5.80;;;;;;;6.03;100.00;98896.59;5044618;28;20429;-81
2024/02/22 04:31:12;;;;;;;11.43;6.10;;;;;;;5.94;100.00;98896.44;5057975;28;20408;-80
2024/02/22 04:33:45;;;;;;;12.00;5.93;;;;;;;6.07;100.00;98896.81;5044731;28;20443;-81
2024/02/22 04:36:18;;;;;;;11.15;5.22;;;;;;;6.02;100.00;98892.31;5053517;28;20432;-81
2024/02/22 04:38:54;;;;;;;10.43;5.50;;;;;;;6.07;100.00;98900.31;5057951;28;20420;-81
2024/02/22 04:41:27;;;;;;;11.30;5.43;;;;;;;6.11;100.00;98885.13;5044296;28;20520;-80
2024/02/22 04:43:57;;;;;;;13.05;5.72;;;;;;;6.18;100.00;98881.28;5059884;28;20420;-82
2024/02/22 04:46:31;;;;;;;13.25;5.70;;;;;;;6.08;100.00;98879.53;5055744;28;20430;-81
2024/02/22 04:49:05;;;;;;;11.95;5.28;;;;;;;6.08;100.00;98876.84;5038654;28;20424;-81
2024/02/22 04:51:40;;;;;;;11.07;5.65;;;;;;;6.06;100.00;98884.41;5058440;28;20419;-80
2024/02/22 04:54:13;;;;;;;11.13;5.63;;;;;;;6.11;100.00;98876.25;5056825;28;20885;-82
2024/02/22 04:56:41;;;;;;;11.02;5.40;;;;;;;6.10;100.00;98878.16;5056931;28;21095;-81
2024/02/22 04:59:16;;;;;;;10.07;5.17;;;;;;;6.13;100.00;98871.34;5055560;28;20506;-82
2024/02/22 05:01:50;;;;;;;11.48;5.47;;;;;;;6.11;100.00;98873.53;5045309;28;20425;-80
2024/02/22 05:04:18;;;;;;;10.25;5.38;;;;;;;6.05;100.00;98862.03;5056622;28;20796;-81
2024/02/22 05:06:51;;;;;;;11.35;5.63;;;;;;;6.05;100.00;98864.72;5040228;28;20436;-81
2024/02/22 05:09:19;;;;;;;10.73;5.35;;;;;;;6.21;100.00;98864.47;5057849;28;20451;-80
2024/02/22 05:11:53;;;;;;;10.10;5.40;;;;;;;6.13;100.00;98855.94;5042585;28;20421;-80
2024/02/22 05:14:22;;;;;;;13.32;5.45;;;;;;;6.11;100.00;98862.75;5061747;28;20418;-81
2024/02/22 05:16:55;;;;;;;12.15;5.65;;;;;;;6.13;100.00;98857.81;5059690;28;20423;-81
2024/02/22 05:19:28;;;;;;;28.33;12.18;;;;;;;6.07;100.00;98853.63;5056883;28;20425;-80
2024/02/22 05:21:57;;;;;;;23.95;12.38;;;;;;;6.22;100.00;98857.97;5038936;28;20956;-81
2024/02/22 05:24:27;;;;;;;25.50;13.97;;;;;;;6.12;100.00;98850.84;5042435;28;20413;-80
2024/02/22 05:27:00;;;;;;;18.17;9.82;;;;;;;6.21;100.00;98854.44;5047100;28;20425;-80
2024/02/22 05:29:35;;;;;;;14.35;8.35;;;;;;;6.17;100.00;98850.75;5048708;28;20435;-81
2024/02/22 05:32:09;;;;;;;11.65;6.25;;;;;;;6.26;100.00;98837.38;5059643;28;20432;-81
2024/02/22 05:34:42;;;;;;;10.98;5.75;;;;;;;6.19;100.00;98837.75;5061857;28;20432;-81
2024/02/22 05:37:19;;;;;;;11.10;5.50;;;;;;;6.20;100.00;98841.25;5047651;28;21105;-80
2024/02/22 05:39:55;;;;;;;10.23;5.15;;;;;;;6.29;100.00;98826.75;5042539;28;20513;-80
2024/02/22 05:42:23;;;;;;;11.53;5.37;;;;;;;6.20;100.00;98825.84;5045159;28;20423;-80
2024/02/22 05:44:57;;;;;;;11.50;5.57;;;;;;;6.21;100.00;98821.25;5062340;28;20427;-80
2024/02/22 05:47:31;;;;;;;12.73;5.35;;;;;;;6.30;100.00;98816.78;5036515;28;20431;-81
2024/02/22 05:50:04;;;;;;;11.32;5.20;;;;;;;6.23;100.00;98819.06;5057997;28;20425;-80
2024/02/22 05:52:33;;;;;;;10.00;5.15;;;;;;;6.28;100.00;98808.97;5056078;28;20423;-80
2024/02/22 05:55:07;;;;;;;10.95;5.45;;;;;;;6.29;100.00;98807.06;5042194;28;20419;-80
2024/02/22 05:57:35;;;;;;;10.33;5.17;;;;;;;6.32;100.00;98811.88;5054699;28;20480;-80
2024/02/22 06:00:07;;;;;;;10.30;5.55;;;;;;;6.29;100.00;98802.44;5058892;28;20772;-80
2024/02/22 06:02:41;;;;;;;11.07;5.15;;;;;;;6.26;100.00;98813.06;5055695;28;21383;-81
2024/02/22 06:05:14;;;;;;;10.32;5.30;;;;;;;6.27;100.00;98799.25;5053210;28;20435;-80
2024/02/22 06:07:42;;;;;;;11.63;5.40;;;;;;;6.33;100.00;98799.97;5044682;28;20795;-81
2024/02/22 06:10:16;;;;;;;9.88;5.00;;;;;;;6.34;100.00;98788.06;5057200;28;20431;-81
2024/02/22 06:12:49;;;;;;;9.85;5.00;;;;;;;6.36;100.00;98785.84;5052879;28;20426;-80
2024/02/22 06:15:24;;;;;;;10.00;4.43;;;;;;;6.33;100.00;98778.34;5056124;28;20614;-80
2024/02/22 06:17:57;;;;;;;8.70;4.50;;;;;;;6.30;100.00;98778.97;5056365;28;20417;-80
2024/02/22 06:20:32;;;;;;;9.82;4.55;;;;;;;6.39;100.00;98773.66;5058589;28;20877;-80
2024/02/22 06:23:05;;;;;;;8.40;4.50;;;;;;;6.34;100.00;98762.94;5060805;28;20421;-80
2024/02/22 06:25:39;;;;;;;9.63;5.00;;;;;;;6.35;100.00;98762.63;5056341;28;20990;-80
2024/02/22 06:28:09;;;;;;;8.43;4.57;;;;;;;6.37;100.00;98762.34;5058510;28;20400;-80
2024/02/22 06:30:44;;;;;;;9.32;4.55;;;;;;;6.34;100.00;98760.22;5036209;28;20429;-81
2024/02/22 06:33:17;;;;;;;7.97;4.37;;;;;;;6.41;100.00;98753.34;5053385;28;20431;-81
2024/02/22 06:35:45;;;;;;;10.30;4.63;;;;;;;6.47;100.00;98754.84;5045460;28;20985;-81
2024/02/22 06:38:18;;;;;;;7.82;4.32;;;;;;;6.45;100.00;98748.94;5056326;28;20412;-81
2024/02/22 06:40:48;;;;;;;7.68;4.22;;;;;;;6.52;100.00;98745.84;5041598;28;20452;-81
2024/02/22 06:43:21;;;;;;;9.60;4.70;;;;;;;6.46;100.00;98747.03;5039230;28;20438;-80
2024/02/22 06:45:51;;;;;;;7.30;4.40;;;;;;;6.54;100.00;98740.94;5058640;28;20436;-80
2024/02/22 06:48:24;;;;;;;8.25;4.05;;;;;;;6.51;100.00;98741.53;5059137;28;20419;-80
2024/02/22 06:50:54;;;;;;;8.07;4.35;;;;;;;6.45;100.00;98738.13;5056488;28;20431;-80
2024/02/22 06:53:23;;;;;;;8.20;4.30;;;;;;;6.44;100.00;98741.13;5038850;28;20443;-81
2024/02/22 06:55:56;;;;;;;7.65;4.15;;;;;;;6.52;100.00;98732.34;5055809;28;20429;-81
2024/02/22 06:58:29;;;;;;;8.15;4.22;;;;;;;6.57;100.00;98728.72;5041975;28;20432;-81
2024/02/22 07:01:04;;;;;;;7.20;4.10;;;;;;;6.55;100.00;98733.63;5055757;28;20413;-81
2024/02/22 07:03:37;;;;;;;7.28;3.80;;;;;;;6.54;100.00;98729.31;5038977;28;20798;-81
2024/02/22 07:06:11;;;;;;;8.00;4.00;;;;;;;6.54;100.00;98724.72;5054546;28;20409;-80
2024/02/22 07:08:45;;;;;;;7.18;4.13;;;;;;;6.49;100.00;98727.53;5026445;28;20422;-81
2024/02/22 07:11:18;;;;;;;7.82;3.92;;;;;;;6.54;100.00;98719.31;5040269;28;20792;-81
2024/02/22 07:13:46;;;;;;;6.65;4.00;;;;;;;6.52;100.00;98724.22;5057938;28;20423;-79
2024/02/22 07:16:21;;;;;;;8.15;4.13;;;;;;;6.60;100.00;98728.09;5035541;28;20456;-81
2024/02/22 07:18:49;;;;;;;7.30;4.30;;;;;;;6.59;100.00;98729.22;5040845;28;20421;-80
2024/02/22 07:21:17;;;;;;;8.00;4.00;;;;;;;6.64;100.00;98718.28;5039054;28;20419;-81
2024/02/22 07:23:45;;;;;;;6.85;3.80;;;;;;;6.59;100.00;98716.50;5057196;28;20416;-81
2024/02/22 07:26:14;;;;;;;8.10;4.40;;;;;;;6.61;100.00;98722.41;5036538;28;20431;-81
2024/02/22 07:28:43;;;;;;;6.57;3.90;;;;;;;6.67;100.00;98725.81;5037526;28;20429;-87
2024/02/22 07:31:16;;;;;;;7.05;4.10;;;;;;;6.68;100.00;98705.00;5035267;28;20425;-81
2024/02/22 07:33:45;;;;;;;7.80;4.00;;;;;;;6.64;100.00;98711.00;5047816;28;20419;-80
2024/02/22 07:36:14;;;;;;;7.07;3.85;;;;;;;6.75;100.00;98711.59;5044775;28;22001;-83
2024/02/22 07:38:43;;;;;;;7.15;4.03;;;;;;;6.71;100.00;98704.38;5055399;28;20899;-81
2024/02/22 07:41:16;;;;;;;7.10;4.00;;;;;;;6.70;100.00;98697.38;5055815;28;20421;-79
2024/02/22 07:43:49;;;;;;;7.43;3.97;;;;;;;6.71;100.00;98699.78;5040227;28;21147;-82
2024/02/22 07:46:23;;;;;;;8.10;4.00;;;;;;;6.88;100.00;98703.78;5051645;28;20426;-81
2024/02/22 07:48:59;;;;;;;6.38;3.70;;;;;;;6.89;100.00;98694.53;5044229;28;20512;-82
2024/02/22 07:51:32;;;;;;;7.82;4.07;;;;;;;6.92;100.00;98702.84;5032242;28;20421;-82
2024/02/22 07:54:01;;;;;;;6.50;3.88;;;;;;;6.86;100.00;98701.34;5053602;28;21007;-85
2024/02/22 07:56:34;;;;;;;9.23;3.38;;;;;;;6.91;100.00;98692.34;5049786;28;20442;-80
2024/02/22 07:59:08;;;;;;;7.35;3.30;;;;;;;6.91;100.00;98698.53;5052551;28;20776;-81
2024/02/22 08:01:42;;;;;;;6.53;3.55;;;;;;;7.09;100.00;98696.00;5050464;28;20427;-82
2024/02/22 08:04:16;;;;;;;5.70;3.17;;;;;;;7.00;100.00;98697.81;5055292;28;20428;-81
2024/02/22 08:06:50;;;;;;;5.93;3.15;;;;;;;6.94;100.00;98699.84;5039596;28;20452;-82
2024/02/22 08:09:23;;;;;;;5.95;3.25;;;;;;;7.01;100.00;98696.72;5033584;28;20444;-80
2024/02/22 08:11:57;;;;;;;5.78;3.10;;;;;;;7.02;100.00;98688.28;5056960;28;20417;-82
2024/02/22 08:14:25;;;;;;;6.90;3.70;;;;;;;7.09;100.00;98690.59;5041820;28;20751;-81
2024/02/22 08:16:53;;;;;;;6.22;3.38;;;;;;;7.14;100.00;98677.75;5054961;28;20428;-82
2024/02/22 08:19:29;;;;;;;7.10;3.20;;;;;;;7.06;100.00;98675.75;5037357;28;20431;-82
2024/02/22 08:22:02;;;;;;;7.45;3.05;;;;;;;7.17;100.00;98676.34;5054248;28;20446;-82
2024/02/22 08:24:30;;;;;;;5.53;2.90;;;;;;;7.15;100.00;98670.41;5052196;28;20423;-82
2024/02/22 08:27:04;;;;;;;6.40;3.07;;;;;;;7.09;100.00;98675.16;5040974;28;20857;-82
2024/02/22 08:29:32;;;;;;;5.57;2.92;;;;;;;7.15;100.00;98668.53;5032421;28;20421;-81
2024/02/22 08:32:07;;;;;;;5.72;2.97;;;;;;;7.09;100.00;98675.16;5023541;28;20440;-80
2024/02/22 08:34:36;;;;;;;5.83;2.73;;;;;;;7.34;100.00;98666.75;5037075;28;21238;-81
2024/02/22 08:37:10;;;;;;;5.85;2.72;;;;;;;7.23;100.00;98661.56;5042323;28;20444;-82
2024/02/22 08:39:43;;;;;;;6.17;2.87;;;;;;;7.22;100.00;98660.00;5037288;28;21018;-82
2024/02/22 08:42:16;;;;;;;7.32;2.83;;;;;;;7.18;100.00;98660.88;5035312;28;20439;-81
2024/02/22 08:44:44;;;;;;;6.05;2.80;;;;;;;7.29;100.00;98652.22;5038065;28;20819;-81
2024/02/22 08:47:17;;;;;;;5.10;2.60;;;;;;;7.22;100.00;98651.88;5047709;28;20442;-81
2024/02/22 08:49:52;;;;;;;5.28;2.60;;;;;;;7.29;100.00;98651.41;5027337;28;20419;-81
2024/02/22 08:52:25;;;;;;;4.60;2.55;;;;;;;7.34;100.00;98648.59;5032281;28;20435;-81
2024/02/22 08:54:59;;;;;;;5.40;2.57;;;;;;;7.42;100.00;98645.16;5019428;28;20424;-83
2024/02/22 08:57:32;;;;;;;5.03;2.75;;;;;;;7.36;100.00;98651.81;5046964;28;20435;-81
2024/02/22 09:00:00;;;;;;;5.18;2.60;;;;;;;7.37;100.00;98647.97;5042031;28;22007;-80
2024/02/22 09:02:33;;;;;;;4.10;2.40;;;;;;;7.40;100.00;98650.09;5017744;28;20428;-86
2024/02/22 09:05:03;;;;;;;4.90;2.40;;;;;;;7.61;100.00;98646.84;5047023;28;20810;-81
2024/02/22 09:07:36;;;;;;;5.37;2.50;;;;;;;7.54;100.00;98650.00;5043388;28;20423;-81
2024/02/22 09:10:10;;;;;;;5.85;2.38;;;;;;;7.82;100.00;98642.50;5031077;28;20433;-80
2024/02/22 09:12:43;;;;;;;4.45;2.30;;;;;;;7.79;100.00;98640.41;5041467;28;20458;-83
2024/02/22 09:15:17;;;;;;;5.07;2.20;;;;;;;7.75;100.00;98642.16;5021705;28;20431;-82
2024/02/22 09:17:45;;;;;;;5.05;2.33;;;;;;;7.83;100.00;98640.59;5021633;28;20416;-80
2024/02/22 09:20:15;;;;;;;5.65;2.58;;;;;;;7.85;100.00;98634.88;5042587;28;20442;-80
2024/02/22 09:22:44;;;;;;;4.65;2.20;;;;;;;7.90;100.00;98632.00;5022968;28;20454;-79
2024/02/22 09:25:17;;;;;;;5.17;2.50;;;;;;;7.75;100.00;98623.19;5048541;28;21074;-82
2024/02/22 09:27:50;;;;;;;5.32;2.50;;;;;;;7.74;100.00;98629.72;5020600;28;20427;-83
2024/02/22 09:30:23;;;;;;;4.43;2.20;;;;;;;7.81;100.00;98626.56;5025969;28;20427;-82
2024/02/22 09:32:57;;;;;;;4.95;2.22;;;;;;;7.92;100.00;98621.69;5035779;28;20431;-82
2024/02/22 09:35:33;;;;;;;4.57;2.10;;;;;;;8.00;100.00;98619.00;5024140;28;20423;-80
2024/02/22 09:38:07;;;;;;;5.20;2.30;;;;;;;8.04;100.00;98612.94;5020048;28;20431;-81
2024/02/22 09:40:40;;;;;;;4.95;2.50;;;;;;;8.01;100.00;98611.69;5039039;28;20739;-83
2024/02/22 09:43:14;;;;;;;4.35;2.10;;;;;;;8.03;100.00;98622.19;5040145;28;20428;-81
2024/02/22 09:45:45;;;;;;;5.10;2.10;;;;;;;8.16;100.00;98613.13;5022611;28;20436;-82
2024/02/22 09:48:18;;;;;;;4.25;2.05;;;;;;;8.31;100.00;98609.19;5033387;28;20435;-82
2024/02/22 09:50:54;;;;;;;3.88;2.10;;;;;;;8.44;100.00;98607.50;5016475;28;20420;-81
2024/02/22 09:53:28;;;;;;;4.25;2.00;;;;;;;8.51;100.00;98600.50;5020560;28;22177;-81
2024/02/22 09:55:56;;;;;;;3.58;1.88;;;;;;;8.60;100.00;98608.63;5041492;28;20431;-83
2024/02/22 09:58:29;;;;;;;3.85;2.00;;;;;;;8.47;100.00;98599.53;5043098;28;20430;-81
2024/02/22 10:01:03;;;;;;;4.00;2.10;;;;;;;8.54;100.00;98598.28;5037589;28;20516;-83
2024/02/22 10:03:37;;;;;;;3.58;2.00;;;;;;;8.68;100.00;98588.84;5040666;28;20431;-83
2024/02/22 10:06:16;;;;;;;5.20;2.00;;;;;;;8.87;100.00;98598.63;5029138;28;20420;-83
2024/02/22 10:08:49;;;;;;;3.97;2.07;;;;;;;8.81;100.00;98591.75;5034707;28;20424;-83
2024/02/22 10:11:22;;;;;;;5.85;2.92;;;;;;;8.70;100.00;98580.44;5038220;28;20419;-80
2024/02/22 10:13:59;;;;;;;4.07;2.13;;;;;;;8.87;100.00;98576.91;5026049;28;20800;-81
2024/02/22 10:16:32;;;;;;;5.00;2.22;;;;;;;8.87;100.00;98568.78;5008061;28;22456;-80
2024/02/22 10:19:01;;;;;;;5.37;2.30;;;;;;;8.81;100.00;98570.03;5040373;28;20419;-83
2024/02/22 10:21:31;;;;;;;5.27;2.30;;;;;;;8.76;100.00;98568.28;5024007;28;20537;-81
2024/02/22 10:24:05;;;;;;;5.65;2.30;;;;;;;8.76;100.00;98565.59;5039110;28;20434;-81
2024/02/22 10:26:34;;;;;;;5.43;2.55;;;;;;;8.71;100.00;98556.81;5026900;28;20416;-82
2024/02/22 10:29:12;;;;;;;5.47;2.30;;;;;;;8.85;100.00;98554.72;5023268;28;21134;-82
2024/02/22 10:31:45;;;;;;;3.47;2.08;;;;;;;8.90;100.00;98551.84;5032330;28;20427;-83
2024/02/22 10:34:19;;;;;;;4.68;2.08;;;;;;;9.04;100.00;98543.53;5036759;28;20442;-81
2024/02/22 10:36:54;;;;;;;4.35;2.20;;;;;;;8.99;100.00;98536.38;5026460;28;20428;-83
2024/02/22 10:39:29;;;;;;;4.47;2.17;;;;;;;9.18;100.00;98533.31;5043830;28;20510;-81
2024/02/22 10:42:04;;;;;;;5.25;2.40;;;;;;;9.14;100.00;98529.63;5018347;28;21200;-81
2024/02/22 10:44:37;;;;;;;4.57;2.17;;;;;;;9.36;100.00;98530.53;5042802;28;20434;-81
2024/02/22 10:47:11;;;;;;;3.47;1.98;;;;;;;9.39;100.00;98526.38;5046306;28;20438;-81
2024/02/22 10:49:47;;;;;;;4.38;2.00;;;;;;;9.42;100.00;98517.56;5024538;28;22377;-82
2024/02/22 10:52:24;;;;;;;6.85;2.40;;;;;;;9.51;100.00;98507.47;5015257;28;20983;-82
2024/02/22 10:54:58;;;;;;;5.82;2.38;;;;;;;9.48;100.00;98516.28;5039285;28;20967;-82
2024/02/22 10:57:30;;;;;;;3.45;2.05;;;;;;;9.64;100.00;98513.78;5034392;28;20804;-79
2024/02/22 11:00:04;;;;;;;4.00;2.08;;;;;;;9.52;100.00;98525.38;5014712;28;20446;-81
2024/02/22 11:02:38;;;;;;;4.82;2.20;;;;;;;9.66;100.00;98523.22;5018207;28;20465;-82
2024/02/22 11:05:12;;;;;;;3.70;2.10;;;;;;;9.45;100.00;98523.16;5014727;28;20965;-81
2024/02/22 11:07:49;;;;;;;3.88;2.15;;;;;;;9.27;100.00;98513.47;5041347;28;20531;-83
2024/02/22 11:10:22;;;;;;;3.17;1.88;;;;;;;9.25;100.00;98510.28;5000935;28;20431;-84
2024/02/22 11:13:03;;;;;;;4.73;2.20;;;;;;;9.10;100.00;98511.59;5017778;28;20442;-82
2024/02/22 11:15:37;;;;;;;5.50;2.30;;;;;;;8.98;100.00;98506.84;5024032;28;20436;-82
2024/02/22 11:18:10;;;;;;;4.80;2.20;;;;;;;9.02;100.00;98496.94;5036398;28;20436;-81
2024/02/22 11:20:38;;;;;;;4.23;2.17;;;;;;;9.09;100.00;98501.88;5038761;28;20470;-83
2024/02/22 11:23:15;;;;;;;4.03;2.03;;;;;;;9.02;100.00;98494.25;5022546;28;20423;-83
2024/02/22 11:25:44;;;;;;;4.18;2.15;;;;;;;8.92;100.00;98487.25;5033641;28;20427;-80
2024/02/22 11:28:17;;;;;;;6.20;2.17;;;;;;;8.92;100.00;98481.81;5007887;28;20431;-82
2024/02/22 11:30:51;;;;;;;5.40;2.53;;;;;;;8.97;100.00;98480.84;5014539;28;20915;-82
2024/02/22 11:33:22;;;;;;;4.75;2.30;;;;;;;8.88;100.00;98475.44;5016426;28;20423;-80
2024/02/22 11:35:53;;;;;;;4.20;2.20;;;;;;;8.81;100.00;98475.13;5022243;28;20423;-81
2024/02/22 11:38:28;;;;;;;6.38;2.63;;;;;;;8.90;100.00;98461.56;5037876;28;20408;-83
2024/02/22 11:41:04;;;;;;;6.43;2.85;;;;;;;8.91;100.00;98463.13;5042058;28;20442;-81
2024/02/22 11:43:37;;;;;;;7.03;3.77;;;;;;;9.09;100.00;98418.56;5020499;28;20446;-81
2024/02/22 11:46:12;;;;;;;6.45;3.47;;;;;;;9.19;100.00;98412.75;5016413;28;21912;-81
2024/02/22 11:48:40;;;;;;;5.20;2.72;;;;;;;9.28;100.00;98407.31;5039508;28;20469;-81
2024/02/22 11:51:13;;;;;;;5.72;3.00;;;;;;;9.30;100.00;98401.53;5045731;28;20961;-82
2024/02/22 11:53:53;;;;;;;5.50;2.72;;;;;;;9.23;100.00;98399.34;5028139;28;20424;-81